createdAt,value
2022-09-28T00:01:17.935Z,93.00
2022-09-28T00:03:47.540Z,93.12
2022-09-28T00:06:18.555Z,92.65
2022-09-28T00:08:50.055Z,91.10
2022-09-28T00:11:19.204Z,91.57
2022-09-28T00:13:52.285Z,91.22
2022-09-28T00:16:28.465Z,90.16
2022-09-28T00:18:57.833Z,88.72
2022-09-28T00:21:31.344Z,89.78
2022-09-28T00:24:12.588Z,89.77
2022-09-28T00:26:51.581Z,89.61
2022-09-28T00:29:20.375Z,90.51
2022-09-28T00:31:54.268Z,90.61
2022-09-28T00:34:23.658Z,90.46
2022-09-28T00:36:50.520Z,91.22
2022-09-28T00:39:18.316Z,92.06
2022-09-28T00:41:47.764Z,92.13
2022-09-28T00:44:26.766Z,91.99
2022-09-28T00:47:15.153Z,92.00
2022-09-28T00:49:57.591Z,92.27
2022-09-28T00:52:47.948Z,92.58
2022-09-28T00:55:41.583Z,92.48
2022-09-28T00:58:15.161Z,92.79
2022-09-28T01:00:42.570Z,91.69
2022-09-28T01:03:09.766Z,91.90
2022-09-28T01:05:39.325Z,94.05
2022-09-28T01:08:07.312Z,94.88
2022-09-28T01:10:36.517Z,95.83
2022-09-28T01:13:03.348Z,97.16
2022-09-28T01:15:33.094Z,96.10
2022-09-28T01:18:15.048Z,96.22
2022-09-28T01:20:57.128Z,95.87
2022-09-28T01:23:54.084Z,96.04
2022-09-28T01:26:26.500Z,96.87
2022-09-28T01:29:18.826Z,96.18
2022-09-28T01:32:18.333Z,95.47
2022-09-28T01:35:15.138Z,95.61
2022-09-28T01:37:58.886Z,95.82
2022-09-28T01:40:27.824Z,95.50
2022-09-28T01:43:26.729Z,94.07
2022-09-28T01:46:13.575Z,93.89
2022-09-28T01:48:56.420Z,96.37
2022-09-28T01:51:46.117Z,97.58
2022-09-28T01:54:21.438Z,96.63
2022-09-28T01:56:55.909Z,95.45
2022-09-28T01:59:33.517Z,96.25
2022-09-28T02:02:34.430Z,96.04
2022-09-28T02:05:11.055Z,94.76
2022-09-28T02:07:46.823Z,95.10
2022-09-28T02:10:20.281Z,95.94
2022-09-28T02:12:52.240Z,96.48
2022-09-28T02:15:28.019Z,95.69
2022-09-28T02:17:57.591Z,94.90
2022-09-28T02:20:25.144Z,95.59
2022-09-28T02:22:58.008Z,95.19
2022-09-28T02:25:54.095Z,97.20
2022-09-28T02:28:21.094Z,96.45
2022-09-28T02:30:50.077Z,94.76
2022-09-28T02:33:33.492Z,94.38
2022-09-28T02:36:04.044Z,93.75
2022-09-28T02:38:34.456Z,93.80
2022-09-28T02:41:46.763Z,93.08
2022-09-28T02:44:57.722Z,93.61
2022-09-28T02:47:45.468Z,94.76
2022-09-28T02:50:56.074Z,95.65
2022-09-28T02:53:52.826Z,95.92
2022-09-28T02:56:33.700Z,94.85
2022-09-28T02:59:24.652Z,94.99
2022-09-28T03:02:20.320Z,93.32
2022-09-28T03:05:04.252Z,93.42
2022-09-28T03:07:43.441Z,92.75
2022-09-28T03:10:48.794Z,92.53
2022-09-28T03:13:16.722Z,95.73
2022-09-28T03:15:48.557Z,95.24
2022-09-28T03:18:16.628Z,94.37
2022-09-28T03:20:50.219Z,96.27
2022-09-28T03:23:25.334Z,95.17
2022-09-28T03:25:52.872Z,93.80
2022-09-28T03:28:22.096Z,93.90
2022-09-28T03:30:49.640Z,93.97
2022-09-28T03:33:16.594Z,94.08
2022-09-28T03:35:50.378Z,95.35
2022-09-28T03:38:19.072Z,94.34
2022-09-28T03:40:57.053Z,93.62
2022-09-28T03:43:25.428Z,92.52
2022-09-28T03:45:59.977Z,92.36
2022-09-28T03:48:37.491Z,92.37
2022-09-28T03:51:09.132Z,92.73
2022-09-28T03:53:39.440Z,92.02
2022-09-28T03:56:11.804Z,92.35
2022-09-28T03:58:38.719Z,92.54
2022-09-28T04:01:17.516Z,93.64
2022-09-28T04:03:45.575Z,94.32
2022-09-28T04:06:12.721Z,93.53
2022-09-28T04:08:43.365Z,92.82
2022-09-28T04:11:10.404Z,92.82
2022-09-28T04:13:37.327Z,93.01
2022-09-28T04:16:05.286Z,93.26
2022-09-28T04:18:35.248Z,93.41
2022-09-28T04:21:15.323Z,95.35
2022-09-28T04:23:42.646Z,94.48
2022-09-28T04:26:19.169Z,94.77
2022-09-28T04:29:07.874Z,93.18
2022-09-28T04:31:53.794Z,92.86
2022-09-28T04:34:22.662Z,90.76
2022-09-28T04:36:49.965Z,90.20
2022-09-28T04:39:19.187Z,89.72
2022-09-28T04:41:50.559Z,89.09
2022-09-28T04:44:21.651Z,89.00
2022-09-28T04:46:48.465Z,88.82
2022-09-28T04:49:15.359Z,89.43
2022-09-28T04:51:45.990Z,90.40
2022-09-28T04:54:13.106Z,88.83
2022-09-28T04:56:42.015Z,88.15
2022-09-28T04:59:11.126Z,88.78
2022-09-28T05:01:38.005Z,88.77
2022-09-28T05:04:07.350Z,88.27
2022-09-28T05:06:34.218Z,89.05
2022-09-28T05:09:03.362Z,88.29
2022-09-28T05:11:30.197Z,88.30
2022-09-28T05:13:56.988Z,88.40
2022-09-28T05:16:33.698Z,88.34
2022-09-28T05:19:00.642Z,87.45
2022-09-28T05:21:30.785Z,87.64
2022-09-28T05:23:58.308Z,88.39
2022-09-28T05:26:25.418Z,88.12
2022-09-28T05:28:52.265Z,87.26
2022-09-28T05:31:21.346Z,87.59
2022-09-28T05:33:53.797Z,86.36
2022-09-28T05:36:20.736Z,87.04
2022-09-28T05:38:54.834Z,87.00
2022-09-28T05:41:21.630Z,86.04
2022-09-28T05:43:48.516Z,85.79
2022-09-28T05:46:18.286Z,85.15
2022-09-28T05:48:47.469Z,84.63
2022-09-28T05:51:14.246Z,85.38
2022-09-28T05:53:41.108Z,85.08
2022-09-28T05:56:13.138Z,86.57
2022-09-28T05:58:42.393Z,86.44
2022-09-28T06:01:09.444Z,84.49
2022-09-28T06:03:39.245Z,84.55
2022-09-28T06:06:12.054Z,83.76
2022-09-28T06:08:42.920Z,83.89
2022-09-28T06:11:12.482Z,83.54
2022-09-28T06:13:43.832Z,83.21
2022-09-28T06:16:18.660Z,81.37
2022-09-28T06:18:45.519Z,81.73
2022-09-28T06:21:14.798Z,81.75
2022-09-28T06:23:45.602Z,81.11
2022-09-28T06:26:18.094Z,80.31
2022-09-28T06:28:44.977Z,80.04
2022-09-28T06:31:11.980Z,82.18
2022-09-28T06:33:38.842Z,81.71
2022-09-28T06:36:05.913Z,83.36
2022-09-28T06:38:32.750Z,83.22
2022-09-28T06:41:02.251Z,83.93
2022-09-28T06:43:33.619Z,83.72
2022-09-28T06:46:02.990Z,84.91
2022-09-28T06:48:33.455Z,85.48
2022-09-28T06:51:05.118Z,85.36
2022-09-28T06:53:32.487Z,83.68
2022-09-28T06:56:02.599Z,85.25
2022-09-28T06:58:29.412Z,85.39
2022-09-28T07:01:02.446Z,84.42
2022-09-28T07:03:33.907Z,82.50
2022-09-28T07:06:04.320Z,84.09
2022-09-28T07:08:31.141Z,84.04
2022-09-28T07:11:01.306Z,84.99
2022-09-28T07:13:49.055Z,84.15
2022-09-28T07:16:22.746Z,83.03
2022-09-28T07:18:52.686Z,84.98
2022-09-28T07:21:27.676Z,85.10
2022-09-28T07:23:56.962Z,82.75
2022-09-28T07:26:24.716Z,82.03
2022-09-28T07:28:55.859Z,81.11
2022-09-28T07:31:25.204Z,79.93
2022-09-28T07:33:56.758Z,78.70
2022-09-28T07:36:23.688Z,79.10
2022-09-28T07:38:52.836Z,78.93
2022-09-28T07:41:32.150Z,77.53
2022-09-28T07:44:06.217Z,76.71
2022-09-28T07:46:35.368Z,75.04
2022-09-28T07:49:08.462Z,75.14
2022-09-28T07:51:38.353Z,75.29
2022-09-28T07:54:07.771Z,74.52
2022-09-28T07:56:36.673Z,75.86
2022-09-28T07:59:06.151Z,75.45
2022-09-28T08:01:35.538Z,74.69
2022-09-28T08:04:07.119Z,76.76
2022-09-28T08:06:36.064Z,78.42
2022-09-28T08:09:02.924Z,78.02
2022-09-28T08:11:29.933Z,81.11
2022-09-28T08:13:58.040Z,80.70
2022-09-28T08:16:27.150Z,80.26
2022-09-28T08:18:56.250Z,78.41
2022-09-28T08:21:42.418Z,80.25
2022-09-28T08:24:12.963Z,78.40
2022-09-28T08:26:45.821Z,73.58
2022-09-28T08:29:15.253Z,71.52
2022-09-28T08:31:42.025Z,70.08
2022-09-28T08:34:08.970Z,68.43
2022-09-28T08:36:35.808Z,66.68
2022-09-28T08:39:02.701Z,68.02
2022-09-28T08:41:40.051Z,67.76
2022-09-28T08:44:24.517Z,64.83
2022-09-28T08:47:04.505Z,53.88
2022-09-28T08:49:38.549Z,47.38
2022-09-28T08:52:25.045Z,40.04
2022-09-28T08:55:14.281Z,40.24
2022-09-28T08:57:52.387Z,40.60
2022-09-28T09:00:33.219Z,37.71
2022-09-28T09:03:06.029Z,35.90
2022-09-28T09:06:03.048Z,36.35
2022-09-28T09:09:01.156Z,33.66
2022-09-28T09:11:58.611Z,32.28
2022-09-28T09:14:47.784Z,37.12
2022-09-28T09:17:37.303Z,36.41
2022-09-28T09:20:33.059Z,34.15
2022-09-28T09:23:02.943Z,32.86
2022-09-28T09:26:03.036Z,34.70
2022-09-28T09:29:04.697Z,36.00
2022-09-28T09:32:05.161Z,37.58
2022-09-28T09:35:13.911Z,43.44
2022-09-28T09:37:56.492Z,45.84
2022-09-28T09:41:23.258Z,48.27
2022-09-28T09:44:28.755Z,51.19
2022-09-28T09:47:07.762Z,50.67
2022-09-28T09:50:17.909Z,52.23
2022-09-28T09:52:57.212Z,50.85
2022-09-28T09:55:40.688Z,51.92
2022-09-28T09:58:34.363Z,51.17
2022-09-28T10:01:27.304Z,49.08
2022-09-28T10:03:55.733Z,47.99
2022-09-28T10:06:34.185Z,47.49
2022-09-28T10:09:15.708Z,46.41
2022-09-28T10:11:54.053Z,45.92
2022-09-28T10:14:25.626Z,45.63
2022-09-28T10:16:56.609Z,44.10
2022-09-28T10:19:35.215Z,44.90
2022-09-28T10:22:05.599Z,47.11
2022-09-28T10:24:45.160Z,48.42
2022-09-28T10:27:20.081Z,49.34
2022-09-28T10:30:08.199Z,50.15
2022-09-28T10:32:43.733Z,51.34
2022-09-28T10:35:24.176Z,52.68
2022-09-28T10:38:17.453Z,56.05
2022-09-28T10:40:51.504Z,59.30
2022-09-28T10:43:28.293Z,59.97
2022-09-28T10:46:07.990Z,59.41
2022-09-28T10:48:55.868Z,58.42
2022-09-28T10:51:48.014Z,58.83
2022-09-28T10:54:20.333Z,59.26
2022-09-28T10:56:48.931Z,57.92
2022-09-28T10:59:31.023Z,57.08
2022-09-28T11:02:22.245Z,56.58
2022-09-28T11:04:57.679Z,56.79
2022-09-28T11:07:28.555Z,55.03
2022-09-28T11:09:56.223Z,55.42
2022-09-28T11:12:33.366Z,53.99
2022-09-28T11:15:06.419Z,49.30
2022-09-28T11:17:40.355Z,46.06
2022-09-28T11:20:35.541Z,44.80
2022-09-28T11:23:10.449Z,41.09
2022-09-28T11:25:37.299Z,36.65
2022-09-28T11:28:05.594Z,36.67
2022-09-28T11:30:49.150Z,35.24
2022-09-28T11:33:30.868Z,33.34
2022-09-28T11:36:17.996Z,32.61
2022-09-28T11:39:11.624Z,33.22
2022-09-28T11:42:04.607Z,34.57
2022-09-28T11:44:41.362Z,35.96
2022-09-28T11:47:34.392Z,37.46
2022-09-28T11:50:26.948Z,39.61
2022-09-28T11:53:22.207Z,42.18
2022-09-28T11:56:08.849Z,42.85
2022-09-28T11:59:19.486Z,43.39
2022-09-28T12:02:04.524Z,43.56
2022-09-28T12:04:43.145Z,44.55
2022-09-28T12:07:51.481Z,45.20
2022-09-28T12:10:40.199Z,45.96
2022-09-28T12:13:10.280Z,47.00
2022-09-28T12:16:15.112Z,45.61
2022-09-28T12:18:49.734Z,45.86
2022-09-28T12:21:33.730Z,46.44
2022-09-28T12:24:18.907Z,46.09
2022-09-28T12:26:52.150Z,46.66
2022-09-28T12:29:29.170Z,46.83
2022-09-28T12:32:23.615Z,47.28
2022-09-28T12:34:53.458Z,48.36
2022-09-28T12:37:42.625Z,51.43
2022-09-28T12:40:09.675Z,51.37
2022-09-28T12:43:20.054Z,51.26
2022-09-28T12:46:11.152Z,50.91
2022-09-28T12:50:07.205Z,52.26
2022-09-28T12:52:31.151Z,53.81
2022-09-28T12:55:39.876Z,52.17
2022-09-28T12:58:38.769Z,53.58
2022-09-28T13:01:24.216Z,53.78
2022-09-28T13:03:57.843Z,53.09
2022-09-28T13:06:58.875Z,52.24
2022-09-28T13:09:28.961Z,51.67
2022-09-28T13:12:15.656Z,52.16
2022-09-28T13:15:27.418Z,52.63
2022-09-28T13:18:26.090Z,51.37
2022-09-28T13:21:34.273Z,51.61
2022-09-28T13:24:30.975Z,50.65
2022-09-28T13:27:04.573Z,50.76
2022-09-28T13:29:34.546Z,49.19
2022-09-28T13:32:03.227Z,48.45
2022-09-28T13:34:35.283Z,48.11
2022-09-28T13:37:16.713Z,48.11
2022-09-28T13:39:47.146Z,46.26
2022-09-28T13:42:50.745Z,44.75
2022-09-28T13:45:20.650Z,42.67
2022-09-28T13:48:15.313Z,40.33
2022-09-28T13:51:03.150Z,37.54
2022-09-28T13:54:05.623Z,35.62
2022-09-28T13:56:53.879Z,33.29
2022-09-28T13:59:30.476Z,32.13
2022-09-28T14:02:30.259Z,30.00
2022-09-28T14:05:06.938Z,29.92
2022-09-28T14:07:59.401Z,29.48
2022-09-28T14:11:11.331Z,28.70
2022-09-28T14:13:41.265Z,28.86
2022-09-28T14:16:32.804Z,28.88
2022-09-28T14:19:09.562Z,28.78
2022-09-28T14:21:58.524Z,29.13
2022-09-28T14:24:55.940Z,30.16
2022-09-28T14:27:51.287Z,30.08
2022-09-28T14:30:41.587Z,31.05
2022-09-28T14:33:21.007Z,31.20
2022-09-28T14:36:05.343Z,31.89
2022-09-28T14:39:31.015Z,31.90
2022-09-28T14:42:10.179Z,32.17
2022-09-28T14:45:07.073Z,33.39
2022-09-28T14:47:41.925Z,35.08
2022-09-28T14:50:40.465Z,35.74
2022-09-28T14:53:13.815Z,35.96
2022-09-28T14:55:55.407Z,35.15
2022-09-28T14:58:28.825Z,35.24
2022-09-28T15:01:18.267Z,34.60
2022-09-28T15:03:52.267Z,36.15
2022-09-28T15:06:26.861Z,34.83
2022-09-28T15:08:56.709Z,35.80
2022-09-28T15:11:28.790Z,36.16
2022-09-28T15:14:07.290Z,37.31
2022-09-28T15:16:34.294Z,38.65
2022-09-28T15:19:39.657Z,41.13
2022-09-28T15:22:18.326Z,41.56
2022-09-28T15:24:59.946Z,43.03
2022-09-28T15:27:39.363Z,45.05
2022-09-28T15:30:22.049Z,47.12
2022-09-28T15:32:53.967Z,47.68
2022-09-28T15:35:26.941Z,48.74
2022-09-28T15:37:56.390Z,49.76
2022-09-28T15:40:38.136Z,50.47
2022-09-28T15:43:30.798Z,50.25
2022-09-28T15:46:05.992Z,51.58
2022-09-28T15:48:52.654Z,52.24
2022-09-28T15:51:26.203Z,53.70
2022-09-28T15:54:02.844Z,54.04
2022-09-28T15:56:33.337Z,55.55
2022-09-28T15:59:15.512Z,56.86
2022-09-28T16:01:50.681Z,57.91
2022-09-28T16:04:41.741Z,57.83
2022-09-28T16:07:40.664Z,57.35
2022-09-28T16:10:13.612Z,55.31
2022-09-28T16:12:42.024Z,55.69
2022-09-28T16:15:27.977Z,54.86
2022-09-28T16:18:13.175Z,54.74
2022-09-28T16:20:41.272Z,54.65
2022-09-28T16:23:17.030Z,56.21
2022-09-28T16:25:54.341Z,56.21
2022-09-28T16:28:48.710Z,56.08
2022-09-28T16:31:15.551Z,56.20
2022-09-28T16:34:01.206Z,56.49
2022-09-28T16:36:43.383Z,56.70
2022-09-28T16:39:11.691Z,57.01
2022-09-28T16:41:42.261Z,57.75
2022-09-28T16:44:23.215Z,57.57
2022-09-28T16:46:53.925Z,57.85
2022-09-28T16:49:21.421Z,58.68
2022-09-28T16:51:48.282Z,58.79
2022-09-28T16:54:40.569Z,59.89
2022-09-28T16:57:13.064Z,59.95
2022-09-28T16:59:45.377Z,60.32
2022-09-28T17:02:45.756Z,60.51
2022-09-28T17:05:10.143Z,61.35
2022-09-28T17:07:39.721Z,62.89
2022-09-28T17:10:24.278Z,62.89
2022-09-28T17:12:53.164Z,63.68
2022-09-28T17:15:23.637Z,63.58
2022-09-28T17:17:50.488Z,64.28
2022-09-28T17:20:26.744Z,65.22
2022-09-28T17:23:06.191Z,65.27
2022-09-28T17:25:33.090Z,65.70
2022-09-28T17:28:03.087Z,67.02
2022-09-28T17:30:30.077Z,69.01
2022-09-28T17:32:58.625Z,69.20
2022-09-28T17:35:25.970Z,69.71
2022-09-28T17:37:55.372Z,69.46
2022-09-28T17:40:28.328Z,69.91
2022-09-28T17:42:57.577Z,69.91
2022-09-28T17:45:28.697Z,70.29
2022-09-28T17:48:00.757Z,70.04
2022-09-28T17:50:34.182Z,71.16
2022-09-28T17:53:06.078Z,71.41
2022-09-28T17:55:36.189Z,71.48
2022-09-28T17:58:17.111Z,72.24
2022-09-28T18:00:48.951Z,71.72
2022-09-28T18:03:22.695Z,72.20
2022-09-28T18:05:59.531Z,72.74
2022-09-28T18:08:26.389Z,72.99
2022-09-28T18:10:57.287Z,73.22
2022-09-28T18:13:28.289Z,72.91
2022-09-28T18:15:57.729Z,73.70
2022-09-28T18:18:25.440Z,74.15
2022-09-28T18:20:52.497Z,74.49
2022-09-28T18:23:19.550Z,74.61
2022-09-28T18:25:47.222Z,76.50
2022-09-28T18:28:14.953Z,76.42
2022-09-28T18:30:44.766Z,76.35
2022-09-28T18:33:15.011Z,77.17
2022-09-28T18:35:51.278Z,77.50
2022-09-28T18:38:19.985Z,77.09
2022-09-28T18:40:48.466Z,76.68
2022-09-28T18:43:16.169Z,76.94
2022-09-28T18:45:43.450Z,76.53
2022-09-28T18:48:10.415Z,76.89
2022-09-28T18:50:37.552Z,76.84
2022-09-28T18:53:11.988Z,77.29
2022-09-28T18:55:41.748Z,78.14
2022-09-28T18:58:14.910Z,79.35
2022-09-28T19:00:42.543Z,79.71
2022-09-28T19:03:11.632Z,80.86
2022-09-28T19:05:46.250Z,82.16
2022-09-28T19:08:16.768Z,83.31
2022-09-28T19:10:48.579Z,83.74
2022-09-28T19:13:15.507Z,83.14
2022-09-28T19:15:42.407Z,83.31
2022-09-28T19:18:09.273Z,83.74
2022-09-28T19:20:40.924Z,84.42
2022-09-28T19:23:10.382Z,84.70
2022-09-28T19:25:37.213Z,84.30
2022-09-28T19:28:04.126Z,84.09
2022-09-28T19:30:31.380Z,84.27
2022-09-28T19:32:58.412Z,83.46
2022-09-28T19:35:25.218Z,83.16
2022-09-28T19:37:54.529Z,83.20
2022-09-28T19:40:21.390Z,83.10
2022-09-28T19:42:50.462Z,84.97
2022-09-28T19:45:17.343Z,85.54
2022-09-28T19:47:47.021Z,84.54
2022-09-28T19:50:13.845Z,84.87
2022-09-28T19:52:42.882Z,84.52
2022-09-28T19:55:12.357Z,86.03
2022-09-28T19:57:39.273Z,85.13
2022-09-28T20:00:09.608Z,84.96
2022-09-28T20:02:36.595Z,84.58
2022-09-28T20:05:06.292Z,84.76
2022-09-28T20:07:36.815Z,84.84
2022-09-28T20:10:11.908Z,84.91
2022-09-28T20:12:43.934Z,85.70
2022-09-28T20:15:11.073Z,86.00
2022-09-28T20:17:40.510Z,86.51
2022-09-28T20:20:07.830Z,86.06
2022-09-28T20:22:40.218Z,85.64
2022-09-28T20:25:10.235Z,86.47
2022-09-28T20:27:39.180Z,86.28
2022-09-28T20:30:07.689Z,87.11
2022-09-28T20:32:35.252Z,87.03
2022-09-28T20:35:02.175Z,87.06
2022-09-28T20:37:30.420Z,87.07
2022-09-28T20:39:58.167Z,85.89
2022-09-28T20:42:25.744Z,86.17
2022-09-28T20:44:53.033Z,85.06
2022-09-28T20:47:24.526Z,86.24
2022-09-28T20:49:51.389Z,85.98
2022-09-28T20:52:23.108Z,85.10
2022-09-28T20:54:52.379Z,85.70
2022-09-28T20:57:20.180Z,86.15
2022-09-28T20:59:52.294Z,86.81
2022-09-28T21:02:22.319Z,87.33
2022-09-28T21:04:49.136Z,86.77
2022-09-28T21:07:15.976Z,86.91
2022-09-28T21:09:45.478Z,87.25
2022-09-28T21:12:12.704Z,87.69
2022-09-28T21:14:46.764Z,88.30
2022-09-28T21:17:13.648Z,88.70
2022-09-28T21:19:40.593Z,90.17
2022-09-28T21:22:07.583Z,90.58
2022-09-28T21:24:37.625Z,90.53
2022-09-28T21:27:06.744Z,91.28
2022-09-28T21:29:36.566Z,92.31
2022-09-28T21:32:05.959Z,90.29
2022-09-28T21:34:32.922Z,91.87
2022-09-28T21:36:59.758Z,90.71
2022-09-28T21:39:29.824Z,89.96
2022-09-28T21:41:56.942Z,89.73
2022-09-28T21:44:23.937Z,89.41
2022-09-28T21:46:50.834Z,88.17
2022-09-28T21:49:17.908Z,89.66
2022-09-28T21:51:47.050Z,89.70
2022-09-28T21:54:15.043Z,89.21
2022-09-28T21:56:41.958Z,88.50
2022-09-28T21:59:08.797Z,89.29
2022-09-28T22:01:35.673Z,88.72
2022-09-28T22:04:05.136Z,88.47
2022-09-28T22:06:32.048Z,88.43
2022-09-28T22:08:58.963Z,89.32
2022-09-28T22:11:28.410Z,90.88
2022-09-28T22:13:58.400Z,90.17
2022-09-28T22:16:30.686Z,90.17
2022-09-28T22:19:01.155Z,89.83
2022-09-28T22:21:32.648Z,89.57
2022-09-28T22:24:07.271Z,88.82
2022-09-28T22:26:36.123Z,88.92
2022-09-28T22:29:07.208Z,90.19
2022-09-28T22:31:38.907Z,90.63
2022-09-28T22:34:08.131Z,91.41
2022-09-28T22:36:35.362Z,90.37
2022-09-28T22:39:03.505Z,90.39
2022-09-28T22:41:32.875Z,90.60
2022-09-28T22:44:00.154Z,90.32
2022-09-28T22:46:29.115Z,90.39
2022-09-28T22:48:58.729Z,89.98
2022-09-28T22:51:29.871Z,90.41
2022-09-28T22:53:59.758Z,90.73
2022-09-28T22:56:26.865Z,91.05
2022-09-28T22:58:55.942Z,91.61
2022-09-28T23:01:29.129Z,91.03
2022-09-28T23:03:59.438Z,90.65
2022-09-28T23:06:30.663Z,89.56
2022-09-28T23:08:57.679Z,92.18
2022-09-28T23:11:27.158Z,91.31
2022-09-28T23:13:59.723Z,90.15
2022-09-28T23:16:30.301Z,90.84
2022-09-28T23:18:57.796Z,92.55
2022-09-28T23:21:27.196Z,91.93
2022-09-28T23:24:01.836Z,91.50
2022-09-28T23:26:34.335Z,91.71
2022-09-28T23:29:01.299Z,90.70
2022-09-28T23:31:31.575Z,90.77
2022-09-28T23:34:05.062Z,90.25
2022-09-28T23:36:32.657Z,91.08
2022-09-28T23:39:00.289Z,90.41
2022-09-28T23:41:27.662Z,91.20
2022-09-28T23:43:54.505Z,92.46
2022-09-28T23:46:21.521Z,92.64
2022-09-28T23:48:49.735Z,92.09
2022-09-28T23:51:16.864Z,91.89
2022-09-28T23:53:43.729Z,90.92
2022-09-28T23:56:11.167Z,90.85
2022-09-28T23:58:38.188Z,90.24
